createdAt,value
2019-02-23T00:01:04.635Z,75.16
2019-02-23T00:03:34.006Z,75.16
2019-02-23T00:06:03.363Z,75.22
2019-02-23T00:08:33.147Z,75.66
2019-02-23T00:11:02.505Z,75.60
2019-02-23T00:13:32.142Z,75.71
2019-02-23T00:16:01.537Z,75.68
2019-02-23T00:18:31.758Z,75.89
2019-02-23T00:21:01.120Z,75.90
2019-02-23T00:23:31.245Z,75.77
2019-02-23T00:26:00.672Z,75.96
2019-02-23T00:28:30.165Z,76.04
2019-02-23T00:30:59.932Z,75.80
2019-02-23T00:33:29.342Z,75.89
2019-02-23T00:35:58.863Z,75.72
2019-02-23T00:38:28.236Z,75.48
2019-02-23T00:40:57.625Z,75.41
2019-02-23T00:43:27.154Z,75.36
2019-02-23T00:45:57.565Z,75.55
2019-02-23T00:48:27.039Z,75.43
2019-02-23T00:50:56.526Z,75.40
2019-02-23T00:53:26.321Z,75.79
2019-02-23T00:55:55.795Z,75.62
2019-02-23T00:58:25.319Z,75.96
2019-02-23T01:00:54.716Z,76.22
2019-02-23T01:03:24.194Z,75.89
2019-02-23T01:05:53.986Z,76.67
2019-02-23T01:08:23.491Z,76.81
2019-02-23T01:10:58.093Z,77.11
2019-02-23T01:13:24.057Z,77.09
2019-02-23T01:15:55.121Z,77.24
2019-02-23T01:18:24.489Z,77.21
2019-02-23T01:20:53.913Z,77.37
2019-02-23T01:23:23.317Z,77.51
2019-02-23T01:25:52.779Z,77.65
2019-02-23T01:28:22.502Z,77.76
2019-02-23T01:30:51.950Z,77.92
2019-02-23T01:33:21.382Z,78.19
2019-02-23T01:35:50.836Z,78.13
2019-02-23T01:38:20.321Z,78.31
2019-02-23T01:40:50.110Z,78.57
2019-02-23T01:43:19.551Z,77.94
2019-02-23T01:45:49.076Z,78.75
2019-02-23T01:48:18.542Z,78.78
2019-02-23T01:50:47.908Z,79.24
2019-02-23T01:53:17.358Z,79.20
2019-02-23T01:55:46.743Z,79.77
2019-02-23T01:58:19.539Z,79.52
2019-02-23T02:00:49.041Z,79.64
2019-02-23T02:03:18.450Z,80.13
2019-02-23T02:05:48.151Z,79.64
2019-02-23T02:08:17.533Z,80.35
2019-02-23T02:10:47.172Z,80.48
2019-02-23T02:13:16.743Z,80.18
2019-02-23T02:15:46.187Z,80.55
2019-02-23T02:18:15.528Z,81.44
2019-02-23T02:20:44.903Z,81.52
2019-02-23T02:23:14.551Z,81.06
2019-02-23T02:25:44.037Z,80.55
2019-02-23T02:28:13.369Z,82.56
2019-02-23T02:30:42.786Z,81.99
2019-02-23T02:33:12.440Z,81.97
2019-02-23T02:35:42.154Z,81.36
2019-02-23T02:38:11.644Z,81.70
2019-02-23T02:40:41.038Z,81.72
2019-02-23T02:43:11.168Z,81.44
2019-02-23T02:45:40.579Z,80.74
2019-02-23T02:48:09.922Z,81.10
2019-02-23T02:50:39.325Z,81.33
2019-02-23T02:53:09.110Z,81.01
2019-02-23T02:55:38.973Z,80.45
2019-02-23T02:58:08.351Z,81.09
2019-02-23T03:00:37.801Z,80.90
2019-02-23T03:03:07.171Z,81.49
2019-02-23T03:05:36.501Z,82.90
2019-02-23T03:08:05.987Z,82.37
2019-02-23T03:10:35.364Z,81.79
2019-02-23T03:13:05.089Z,81.89
2019-02-23T03:15:35.320Z,82.01
2019-02-23T03:18:04.718Z,82.03
2019-02-23T03:20:36.913Z,81.98
2019-02-23T03:23:05.400Z,82.83
2019-02-23T03:25:34.738Z,83.06
2019-02-23T03:28:04.718Z,82.18
2019-02-23T03:30:34.140Z,81.40
2019-02-23T03:33:03.587Z,81.84
2019-02-23T03:35:33.729Z,83.21
2019-02-23T03:38:04.291Z,82.67
2019-02-23T03:40:33.987Z,84.19
2019-02-23T03:43:03.387Z,85.23
2019-02-23T03:45:32.782Z,83.63
2019-02-23T03:48:02.159Z,83.41
2019-02-23T03:50:33.402Z,82.59
2019-02-23T03:53:02.932Z,83.35
2019-02-23T03:55:32.282Z,83.77
2019-02-23T03:58:01.754Z,83.92
2019-02-23T04:00:31.106Z,83.45
2019-02-23T04:03:00.570Z,83.16
2019-02-23T04:05:30.291Z,83.27
2019-02-23T04:07:59.885Z,83.61
2019-02-23T04:10:29.275Z,83.45
2019-02-23T04:12:58.632Z,82.87
2019-02-23T04:15:28.007Z,83.17
2019-02-23T04:17:57.737Z,84.61
2019-02-23T04:20:27.211Z,84.10
2019-02-23T04:22:56.946Z,83.59
2019-02-23T04:25:26.453Z,82.85
2019-02-23T04:27:55.982Z,83.19
2019-02-23T04:30:25.778Z,83.09
2019-02-23T04:32:55.151Z,83.13
2019-02-23T04:35:24.595Z,83.10
2019-02-23T04:37:54.096Z,84.55
2019-02-23T04:40:23.496Z,84.22
2019-02-23T04:42:53.195Z,82.71
2019-02-23T04:45:22.634Z,82.05
2019-02-23T04:47:52.420Z,82.29
2019-02-23T04:50:21.799Z,82.76
2019-02-23T04:52:51.218Z,82.67
2019-02-23T04:55:20.588Z,82.97
2019-02-23T04:57:49.964Z,83.55
2019-02-23T05:00:19.389Z,84.67
2019-02-23T05:02:48.933Z,84.06
2019-02-23T05:05:18.332Z,84.10
2019-02-23T05:07:47.987Z,85.08
2019-02-23T05:10:17.819Z,84.97
2019-02-23T05:12:48.019Z,84.46
2019-02-23T05:15:17.576Z,83.36
2019-02-23T05:17:48.175Z,85.00
2019-02-23T05:20:17.661Z,83.19
2019-02-23T05:22:47.406Z,85.44
2019-02-23T05:25:17.234Z,84.08
2019-02-23T05:27:46.593Z,83.55
2019-02-23T05:30:16.039Z,86.61
2019-02-23T05:32:45.792Z,85.43
2019-02-23T05:35:15.323Z,85.93
2019-02-23T05:37:45.194Z,86.02
2019-02-23T05:40:14.654Z,84.98
2019-02-23T05:42:44.330Z,84.04
2019-02-23T05:45:14.160Z,84.45
2019-02-23T05:47:43.540Z,85.20
2019-02-23T05:50:12.941Z,84.46
2019-02-23T05:52:42.862Z,85.67
2019-02-23T05:55:12.287Z,84.77
2019-02-23T05:57:41.681Z,83.31
2019-02-23T06:00:11.933Z,82.07
2019-02-23T06:02:44.773Z,81.67
2019-02-23T06:05:12.584Z,80.69
2019-02-23T06:07:41.926Z,79.26
2019-02-23T06:10:11.739Z,78.68
2019-02-23T06:12:41.128Z,78.96
2019-02-23T06:15:12.775Z,78.65
2019-02-23T06:17:42.520Z,78.84
2019-02-23T06:20:12.035Z,78.96
2019-02-23T06:22:42.064Z,79.07
2019-02-23T06:25:12.272Z,79.24
2019-02-23T06:27:42.479Z,79.08
2019-02-23T06:30:12.679Z,78.43
2019-02-23T06:32:42.856Z,77.97
2019-02-23T06:35:12.258Z,77.42
2019-02-23T06:37:42.071Z,77.00
2019-02-23T06:40:12.374Z,76.57
2019-02-23T06:42:41.810Z,75.70
2019-02-23T06:45:11.264Z,75.41
2019-02-23T06:47:40.653Z,75.22
2019-02-23T06:50:10.067Z,73.92
2019-02-23T06:52:39.557Z,72.94
2019-02-23T06:55:08.963Z,72.37
2019-02-23T06:57:38.382Z,72.45
2019-02-23T07:00:09.946Z,72.26
2019-02-23T07:02:39.332Z,71.05
2019-02-23T07:05:08.888Z,69.11
2019-02-23T07:07:38.301Z,67.57
2019-02-23T07:10:09.391Z,65.55
2019-02-23T07:12:39.111Z,64.45
2019-02-23T07:15:08.813Z,63.51
2019-02-23T07:17:38.232Z,64.47
2019-02-23T07:20:08.193Z,65.90
2019-02-23T07:22:37.712Z,67.32
2019-02-23T07:25:07.551Z,68.17
2019-02-23T07:27:37.051Z,67.92
2019-02-23T07:30:07.634Z,67.61
2019-02-23T07:32:37.133Z,67.44
2019-02-23T07:35:06.554Z,66.76
2019-02-23T07:37:35.922Z,66.40
2019-02-23T07:40:05.964Z,66.23
2019-02-23T07:42:35.437Z,66.71
2019-02-23T07:45:04.886Z,67.31
2019-02-23T07:47:34.644Z,67.83
2019-02-23T07:50:04.013Z,68.19
2019-02-23T07:52:33.486Z,68.27
2019-02-23T07:55:02.917Z,68.34
2019-02-23T07:57:32.522Z,68.38
2019-02-23T08:00:02.025Z,68.33
2019-02-23T08:02:31.539Z,67.97
2019-02-23T08:05:00.995Z,67.91
2019-02-23T08:07:30.457Z,68.26
2019-02-23T08:09:59.920Z,68.48
2019-02-23T08:12:29.461Z,68.82
2019-02-23T08:14:58.881Z,68.49
2019-02-23T08:17:28.434Z,68.82
2019-02-23T08:19:57.972Z,68.34
2019-02-23T08:22:37.079Z,68.16
2019-02-23T08:24:59.287Z,67.76
2019-02-23T08:27:29.781Z,67.46
2019-02-23T08:29:59.339Z,66.69
2019-02-23T08:32:28.924Z,66.38
2019-02-23T08:34:58.662Z,66.48
2019-02-23T08:37:29.657Z,66.49
2019-02-23T08:39:59.168Z,65.67
2019-02-23T08:42:28.703Z,65.55
2019-02-23T08:44:58.139Z,65.40
2019-02-23T08:47:27.518Z,65.37
2019-02-23T08:49:58.280Z,65.37
2019-02-23T08:52:28.220Z,65.58
2019-02-23T08:54:58.024Z,65.48
2019-02-23T08:57:28.252Z,65.56
2019-02-23T08:59:58.965Z,65.89
2019-02-23T09:02:28.446Z,65.43
2019-02-23T09:04:57.832Z,65.65
2019-02-23T09:07:27.325Z,65.60
2019-02-23T09:09:56.755Z,65.67
2019-02-23T09:12:26.534Z,65.51
2019-02-23T09:14:55.929Z,65.17
2019-02-23T09:17:25.612Z,65.22
2019-02-23T09:19:56.711Z,65.19
2019-02-23T09:22:26.164Z,65.16
2019-02-23T09:24:55.966Z,65.48
2019-02-23T09:27:25.521Z,64.96
2019-02-23T09:29:55.253Z,64.97
2019-02-23T09:32:25.010Z,64.71
2019-02-23T09:34:56.025Z,64.66
2019-02-23T09:37:26.540Z,64.71
2019-02-23T09:39:56.745Z,64.54
2019-02-23T09:42:26.571Z,64.26
2019-02-23T09:44:55.986Z,64.52
2019-02-23T09:47:26.165Z,64.36
2019-02-23T09:49:56.186Z,64.31
2019-02-23T09:52:26.846Z,64.08
2019-02-23T09:54:56.260Z,64.08
2019-02-23T09:57:26.811Z,63.96
2019-02-23T09:59:56.407Z,63.83
2019-02-23T10:02:26.481Z,63.97
2019-02-23T10:04:58.799Z,63.76
2019-02-23T10:07:28.269Z,63.61
2019-02-23T10:09:57.848Z,63.68
2019-02-23T10:12:27.270Z,63.40
2019-02-23T10:14:56.717Z,62.88
2019-02-23T10:17:26.088Z,62.88
2019-02-23T10:19:55.951Z,62.42
2019-02-23T10:22:25.359Z,62.29
2019-02-23T10:24:55.130Z,62.07
2019-02-23T10:27:24.697Z,62.57
2019-02-23T10:29:54.343Z,62.32
2019-02-23T10:32:24.005Z,62.79
2019-02-23T10:34:53.790Z,62.82
2019-02-23T10:37:23.297Z,61.84
2019-02-23T10:39:52.747Z,61.91
2019-02-23T10:42:22.512Z,61.76
2019-02-23T10:44:52.021Z,61.80
2019-02-23T10:47:21.420Z,61.66
2019-02-23T10:49:50.835Z,61.87
2019-02-23T10:52:20.258Z,61.55
2019-02-23T10:54:49.771Z,61.96
2019-02-23T10:57:19.428Z,61.75
2019-02-23T10:59:49.248Z,61.75
2019-02-23T11:02:19.041Z,61.54
2019-02-23T11:04:48.530Z,61.77
2019-02-23T11:07:18.575Z,61.76
2019-02-23T11:09:49.477Z,61.97
2019-02-23T11:12:18.956Z,62.02
2019-02-23T11:14:48.553Z,62.00
2019-02-23T11:17:18.435Z,62.07
2019-02-23T11:19:49.062Z,62.30
2019-02-23T11:22:18.934Z,62.29
2019-02-23T11:24:48.410Z,62.01
2019-02-23T11:27:18.006Z,62.04
2019-02-23T11:29:47.592Z,62.00
2019-02-23T11:32:17.032Z,62.13
2019-02-23T11:34:47.309Z,62.31
2019-02-23T11:37:17.247Z,62.30
2019-02-23T11:39:46.752Z,61.88
2019-02-23T11:42:16.535Z,61.79
2019-02-23T11:44:46.076Z,62.00
2019-02-23T11:47:15.738Z,62.00
2019-02-23T11:49:45.882Z,61.94
2019-02-23T11:52:15.441Z,61.93
2019-02-23T11:54:45.157Z,62.21
2019-02-23T11:57:15.048Z,62.44
2019-02-23T11:59:44.549Z,62.30
2019-02-23T12:02:14.156Z,62.51
2019-02-23T12:04:44.001Z,62.84
2019-02-23T12:07:13.671Z,63.05
2019-02-23T12:09:43.167Z,63.69
2019-02-23T12:12:12.711Z,63.93
2019-02-23T12:14:42.099Z,64.09
2019-02-23T12:17:11.823Z,64.19
2019-02-23T12:19:41.697Z,64.37
2019-02-23T12:22:12.590Z,64.68
2019-02-23T12:24:42.269Z,64.89
2019-02-23T12:27:12.947Z,65.08
2019-02-23T12:29:42.545Z,65.47
2019-02-23T12:32:12.034Z,65.72
2019-02-23T12:34:41.496Z,65.84
2019-02-23T12:37:10.861Z,65.95
2019-02-23T12:39:40.491Z,65.97
2019-02-23T12:42:10.039Z,65.96
2019-02-23T12:44:39.662Z,66.01
2019-02-23T12:47:10.143Z,66.02
2019-02-23T12:49:39.936Z,66.13
2019-02-23T12:52:09.417Z,65.63
2019-02-23T12:54:38.823Z,65.32
2019-02-23T12:57:08.992Z,65.02
2019-02-23T12:59:38.774Z,65.04
2019-02-23T13:02:08.267Z,64.75
2019-02-23T13:04:37.649Z,64.39
2019-02-23T13:07:07.020Z,64.38
2019-02-23T13:09:39.767Z,63.84
2019-02-23T13:12:36.949Z,63.33
2019-02-23T13:15:30.741Z,63.11
2019-02-23T13:18:25.659Z,63.10
2019-02-23T13:21:26.783Z,63.37
2019-02-23T13:24:44.174Z,63.53
2019-02-23T13:27:35.444Z,63.57
2019-02-23T13:31:09.979Z,63.96
2019-02-23T13:34:16.692Z,64.46
2019-02-23T13:37:47.888Z,64.74
2019-02-23T13:41:04.723Z,64.97
2019-02-23T13:44:15.036Z,65.13
2019-02-23T13:47:22.659Z,65.60
2019-02-23T13:50:31.150Z,65.63
2019-02-23T13:53:35.912Z,65.67
2019-02-23T13:56:44.439Z,65.46
2019-02-23T13:59:53.594Z,65.56
2019-02-23T14:03:17.971Z,66.05
2019-02-23T14:06:22.381Z,65.75
2019-02-23T14:09:28.675Z,65.51
2019-02-23T14:12:13.201Z,65.16
2019-02-23T14:15:22.321Z,65.11
2019-02-23T14:18:09.494Z,65.06
2019-02-23T14:21:03.216Z,65.34
2019-02-23T14:23:53.180Z,65.36
2019-02-23T14:27:19.257Z,65.05
2019-02-23T14:30:36.590Z,64.82
2019-02-23T14:34:00.657Z,65.01
2019-02-23T14:37:09.065Z,65.53
2019-02-23T14:40:13.245Z,66.12
2019-02-23T14:43:38.419Z,66.47
2019-02-23T14:46:48.418Z,67.16
2019-02-23T14:49:58.533Z,67.08
2019-02-23T14:53:10.212Z,67.03
2019-02-23T14:56:11.924Z,67.20
2019-02-23T14:58:57.934Z,67.33
2019-02-23T15:01:57.958Z,67.40
2019-02-23T15:05:20.593Z,67.56
2019-02-23T15:08:12.711Z,67.63
2019-02-23T15:11:11.161Z,68.18
2019-02-23T15:14:04.508Z,68.51
2019-02-23T15:17:13.749Z,68.96
2019-02-23T15:20:29.809Z,69.06
2019-02-23T15:23:35.465Z,69.07
2019-02-23T15:26:46.166Z,69.17
2019-02-23T15:30:02.818Z,69.10
2019-02-23T15:33:02.502Z,68.96
2019-02-23T15:35:42.544Z,69.68
2019-02-23T15:39:01.981Z,69.29
2019-02-23T15:42:04.329Z,69.61
2019-02-23T15:45:22.553Z,69.38
2019-02-23T15:48:18.316Z,69.50
2019-02-23T15:50:48.069Z,69.83
2019-02-23T15:53:17.502Z,69.46
2019-02-23T15:55:46.965Z,69.89
2019-02-23T15:58:22.105Z,69.89
2019-02-23T16:00:51.459Z,70.16
2019-02-23T16:03:20.985Z,71.25
2019-02-23T16:05:50.470Z,70.71
2019-02-23T16:08:19.864Z,70.38
2019-02-23T16:10:49.228Z,70.41
2019-02-23T16:13:18.792Z,70.30
2019-02-23T16:15:48.400Z,71.08
2019-02-23T16:18:17.952Z,71.36
2019-02-23T16:20:48.280Z,71.74
2019-02-23T16:23:17.760Z,73.52
2019-02-23T16:25:47.404Z,74.15
2019-02-23T16:28:16.978Z,72.90
2019-02-23T16:30:47.068Z,73.22
2019-02-23T16:33:16.682Z,74.43
2019-02-23T16:35:46.183Z,74.03
2019-02-23T16:38:15.592Z,74.30
2019-02-23T16:40:45.049Z,74.41
2019-02-23T16:43:14.871Z,75.17
2019-02-23T16:45:44.336Z,76.04
2019-02-23T16:48:19.357Z,77.49
2019-02-23T16:50:48.805Z,75.81
2019-02-23T16:53:18.180Z,77.32
2019-02-23T16:55:51.001Z,77.20
2019-02-23T16:58:18.858Z,77.49
2019-02-23T17:00:48.181Z,76.78
2019-02-23T17:03:17.645Z,76.26
2019-02-23T17:05:47.111Z,76.34
2019-02-23T17:08:16.790Z,77.00
2019-02-23T17:10:46.319Z,76.52
2019-02-23T17:13:16.210Z,76.43
2019-02-23T17:15:46.241Z,76.47
2019-02-23T17:18:15.851Z,76.75
2019-02-23T17:20:45.358Z,76.40
2019-02-23T17:23:14.877Z,75.75
2019-02-23T17:25:44.625Z,76.20
2019-02-23T17:28:13.993Z,75.82
2019-02-23T17:30:43.491Z,75.73
2019-02-23T17:33:12.995Z,75.59
2019-02-23T17:35:42.779Z,75.52
2019-02-23T17:38:16.081Z,76.45
2019-02-23T17:40:43.487Z,76.30
2019-02-23T17:43:13.039Z,77.10
2019-02-23T17:45:42.610Z,77.57
2019-02-23T17:48:12.722Z,77.67
2019-02-23T17:50:42.195Z,77.83
2019-02-23T17:53:11.758Z,77.80
2019-02-23T17:55:41.306Z,77.90
2019-02-23T17:58:11.056Z,77.60
2019-02-23T18:00:41.450Z,76.84
2019-02-23T18:03:11.264Z,76.85
2019-02-23T18:05:43.363Z,76.96
2019-02-23T18:08:13.036Z,76.53
2019-02-23T18:10:42.792Z,76.94
2019-02-23T18:13:12.670Z,76.47
2019-02-23T18:15:42.776Z,75.93
2019-02-23T18:18:12.329Z,75.96
2019-02-23T18:20:42.214Z,75.75
2019-02-23T18:23:11.656Z,75.69
2019-02-23T18:25:41.292Z,75.70
2019-02-23T18:28:11.058Z,75.16
2019-02-23T18:30:41.106Z,75.34
2019-02-23T18:33:11.040Z,75.25
2019-02-23T18:35:40.818Z,75.30
2019-02-23T18:38:11.369Z,75.18
2019-02-23T18:40:41.598Z,74.85
2019-02-23T18:43:10.996Z,74.77
2019-02-23T18:45:47.224Z,75.11
2019-02-23T18:48:11.875Z,74.76
2019-02-23T18:50:41.767Z,74.70
2019-02-23T18:53:11.237Z,74.61
2019-02-23T18:55:41.478Z,74.38
2019-02-23T18:58:10.967Z,74.40
2019-02-23T19:00:40.753Z,74.32
2019-02-23T19:03:10.351Z,74.24
2019-02-23T19:05:40.451Z,73.96
2019-02-23T19:08:10.046Z,73.66
2019-02-23T19:10:40.146Z,73.92
2019-02-23T19:13:09.984Z,74.10
2019-02-23T19:15:39.662Z,74.23
2019-02-23T19:18:09.921Z,74.24
2019-02-23T19:20:39.366Z,74.08
2019-02-23T19:23:08.825Z,73.99
2019-02-23T19:25:38.945Z,73.83
2019-02-23T19:28:08.672Z,73.66
2019-02-23T19:30:38.806Z,74.19
2019-02-23T19:33:08.194Z,73.92
2019-02-23T19:35:37.746Z,74.26
2019-02-23T19:38:07.773Z,74.38
2019-02-23T19:40:37.246Z,74.12
2019-02-23T19:43:06.660Z,74.36
2019-02-23T19:45:36.228Z,74.36
2019-02-23T19:48:06.194Z,74.07
2019-02-23T19:50:39.370Z,74.26
2019-02-23T19:53:08.828Z,74.58
2019-02-23T19:55:38.481Z,74.44
2019-02-23T19:58:07.927Z,74.44
2019-02-23T20:00:38.106Z,74.15
2019-02-23T20:03:07.998Z,74.28
2019-02-23T20:05:38.206Z,74.49
2019-02-23T20:08:08.078Z,74.39
2019-02-23T20:10:37.577Z,74.28
2019-02-23T20:13:06.944Z,74.56
2019-02-23T20:15:37.640Z,74.51
2019-02-23T20:18:07.494Z,74.29
2019-02-23T20:20:36.976Z,74.45
2019-02-23T20:23:07.091Z,74.28
2019-02-23T20:25:36.604Z,74.18
2019-02-23T20:28:06.502Z,74.16
2019-02-23T20:30:36.267Z,74.03
2019-02-23T20:33:05.763Z,73.98
2019-02-23T20:35:35.417Z,73.85
2019-02-23T20:38:05.266Z,74.09
2019-02-23T20:40:34.804Z,73.85
2019-02-23T20:43:04.227Z,73.83
2019-02-23T20:45:33.683Z,74.29
2019-02-23T20:48:03.543Z,74.29
2019-02-23T20:50:33.343Z,74.06
2019-02-23T20:53:03.250Z,74.02
2019-02-23T20:55:32.643Z,74.23
2019-02-23T20:58:02.382Z,73.95
2019-02-23T21:00:31.819Z,73.77
2019-02-23T21:03:01.257Z,73.49
2019-02-23T21:05:30.720Z,73.19
2019-02-23T21:08:00.848Z,72.89
2019-02-23T21:10:30.725Z,72.68
2019-02-23T21:13:00.452Z,72.50
2019-02-23T21:15:29.856Z,72.28
2019-02-23T21:17:59.759Z,72.04
2019-02-23T21:20:29.153Z,71.98
2019-02-23T21:22:58.963Z,72.10
2019-02-23T21:25:29.310Z,72.18
2019-02-23T21:27:59.127Z,72.32
2019-02-23T21:30:28.556Z,72.39
2019-02-23T21:32:58.511Z,72.28
2019-02-23T21:35:29.144Z,72.22
2019-02-23T21:37:58.604Z,72.54
2019-02-23T21:40:28.013Z,72.54
2019-02-23T21:42:57.384Z,72.58
2019-02-23T21:45:26.836Z,72.67
2019-02-23T21:47:56.252Z,72.80
2019-02-23T21:50:26.018Z,72.79
2019-02-23T21:52:55.705Z,72.91
2019-02-23T21:55:25.397Z,73.12
2019-02-23T21:57:54.765Z,73.18
2019-02-23T22:00:24.476Z,73.04
2019-02-23T22:02:53.900Z,72.91
2019-02-23T22:05:24.980Z,72.85
2019-02-23T22:07:54.755Z,72.46
2019-02-23T22:10:24.483Z,72.40
2019-02-23T22:12:54.360Z,72.97
2019-02-23T22:15:24.471Z,72.74
2019-02-23T22:17:53.851Z,72.67
2019-02-23T22:20:24.138Z,72.64
2019-02-23T22:22:54.766Z,73.03
2019-02-23T22:25:24.552Z,72.84
2019-02-23T22:27:53.913Z,72.78
2019-02-23T22:30:23.362Z,73.00
2019-02-23T22:32:52.745Z,72.87
2019-02-23T22:35:22.296Z,72.89
2019-02-23T22:37:52.459Z,73.22
2019-02-23T22:40:21.833Z,73.54
2019-02-23T22:42:51.544Z,73.56
2019-02-23T22:45:21.682Z,73.87
2019-02-23T22:47:51.162Z,74.17
2019-02-23T22:50:20.600Z,74.19
2019-02-23T22:52:49.933Z,74.20
2019-02-23T22:55:19.614Z,74.42
2019-02-23T22:57:48.978Z,74.71
2019-02-23T23:00:23.840Z,74.90
2019-02-23T23:02:53.723Z,74.99
2019-02-23T23:05:23.775Z,75.04
2019-02-23T23:07:53.195Z,75.08
2019-02-23T23:10:22.660Z,74.98
2019-02-23T23:12:52.099Z,74.87
2019-02-23T23:15:21.597Z,75.10
2019-02-23T23:17:51.334Z,74.94
2019-02-23T23:20:20.857Z,74.95
2019-02-23T23:22:51.914Z,74.20
2019-02-23T23:25:22.498Z,73.75
2019-02-23T23:27:51.980Z,73.71
2019-02-23T23:30:24.097Z,73.52
2019-02-23T23:32:53.925Z,73.24
2019-02-23T23:35:23.353Z,73.16
2019-02-23T23:37:52.822Z,72.92
2019-02-23T23:40:22.588Z,72.68
2019-02-23T23:42:58.218Z,72.55
2019-02-23T23:45:23.816Z,72.51
2019-02-23T23:47:54.357Z,72.54
2019-02-23T23:50:24.408Z,72.52
2019-02-23T23:52:53.795Z,72.57
2019-02-23T23:55:23.377Z,72.57
2019-02-23T23:57:58.300Z,72.66
